Time;durP1;ratioP1;P1;durP2;ratioP2;P2;SDS_P1;SDS_P2;PMS_P1;PMS_P2;Temp;Humidity;BMP_temperature;BMP_pressure;BME280_temperature;BME280_humidity;BME280_pressure;Samples;Min_cycle;Max_cycle;Signal;HPM_P1;HPM_P2
2022/04/09 00:00:18;;;;;;;;;5.50;3.75;;;;;7.62;63.73;100555.75;5169212;27;45148;-71
2022/04/09 00:02:43;;;;;;;;;8.25;5.00;;;;;7.70;64.48;100570.22;5175971;27;45189;-72
2022/04/09 00:05:11;;;;;;;;;8.00;7.00;;;;;7.19;64.07;100486.97;5176404;27;45246;-72
2022/04/09 00:07:37;;;;;;;;;7.00;4.75;;;;;7.43;63.65;100531.19;5176068;27;45390;-71
2022/04/09 00:10:05;;;;;;;;;5.25;5.25;;;;;7.61;63.75;100578.78;5175578;27;45179;-73
2022/04/09 00:12:30;;;;;;;;;5.00;5.00;;;;;7.65;63.97;100586.00;5172851;27;45299;-74
2022/04/09 00:14:56;;;;;;;;;11.00;8.00;;;;;7.30;63.55;100529.84;5175740;27;44948;-73
2022/04/09 00:17:21;;;;;;;;;6.00;4.25;;;;;7.62;63.55;100588.56;5171988;27;45179;-70
2022/04/09 00:19:47;;;;;;;;;8.25;4.75;;;;;7.54;63.41;100582.09;5156164;27;46232;-73
2022/04/09 00:22:13;;;;;;;;;5.00;4.25;;;;;7.63;63.94;100592.13;5174577;27;44971;-72
2022/04/09 00:24:38;;;;;;;;;9.00;8.00;;;;;7.66;64.19;100592.25;5174366;27;45066;-71
2022/04/09 00:27:03;;;;;;;;;7.50;6.00;;;;;7.53;63.97;100575.84;5172301;27;45244;-71
2022/04/09 00:29:29;;;;;;;;;7.25;7.25;;;;;7.45;64.17;100564.03;5172824;27;45917;-72
2022/04/09 00:31:54;;;;;;;;;7.75;6.50;;;;;7.60;64.23;100600.00;5169455;27;45228;-73
2022/04/09 00:34:19;;;;;;;;;5.00;5.00;;;;;7.54;63.46;100606.91;5156145;27;45050;-72
2022/04/09 00:36:45;;;;;;;;;7.75;4.00;;;;;7.48;64.09;100611.09;5176692;27;45218;-72
2022/04/09 00:39:10;;;;;;;;;4.50;4.50;;;;;7.31;63.78;100599.81;5175804;27;45533;-69
2022/04/09 00:41:40;;;;;;;;;9.50;4.50;;;;;7.22;64.47;100607.47;5175349;27;46645;-70
2022/04/09 00:44:15;;;;;;;;;4.75;4.75;;;;;7.13;64.34;100597.41;5176245;27;45275;-73
2022/04/09 00:46:41;;;;;;;;;3.25;3.25;;;;;7.06;64.64;100590.97;5174524;27;45077;-71
2022/04/09 00:49:06;;;;;;;;;2.75;2.75;;;;;7.22;63.93;100615.44;5174782;27;45605;-73
2022/04/09 00:51:34;;;;;;;;;7.75;5.50;;;;;7.20;64.52;100621.59;5174315;27;45159;-71
2022/04/09 00:54:00;;;;;;;;;4.75;3.00;;;;;7.28;64.77;100626.31;5175187;27;45030;-73
2022/04/09 00:56:26;;;;;;;;;3.00;3.00;;;;;7.30;64.13;100627.25;5173847;27;45419;-74
2022/04/09 00:58:54;;;;;;;;;7.00;7.00;;;;;7.35;64.05;100638.97;5173661;27;45654;-74
2022/04/09 01:01:21;;;;;;;;;7.00;4.00;;;;;6.86;64.07;100533.50;5172197;27;45130;-73
2022/04/09 01:03:47;;;;;;;;;5.25;2.75;;;;;7.33;63.97;100622.06;5172038;27;46517;-74
2022/04/09 01:06:13;;;;;;;;;5.75;4.25;;;;;7.45;63.39;100640.22;5173391;27;45325;-72
2022/04/09 01:08:38;;;;;;;;;5.00;3.00;;;;;7.39;63.53;100635.56;5172358;27;45765;-74
2022/04/09 01:11:04;;;;;;;;;4.50;3.00;;;;;7.26;63.91;100610.31;5171411;27;45224;-74
2022/04/09 01:13:30;;;;;;;;;4.50;4.50;;;;;7.48;63.61;100637.69;5172430;27;45224;-73
2022/04/09 01:15:56;;;;;;;;;8.50;4.50;;;;;7.43;63.77;100625.97;5168379;27;44944;-73
2022/04/09 01:18:21;;;;;;;;;4.00;4.00;;;;;7.43;63.60;100639.28;5174527;27;45525;-73
2022/04/09 01:20:46;;;;;;;;;7.50;3.50;;;;;7.47;63.39;100644.72;5175037;27;45244;-73
2022/04/09 01:23:12;;;;;;;;;5.00;3.75;;;;;7.29;62.98;100621.06;5155501;27;45977;-73
2022/04/09 01:25:38;;;;;;;;;4.25;4.25;;;;;7.44;62.85;100655.28;5174772;27;45156;-72
2022/04/09 01:28:04;;;;;;;;;4.50;3.50;;;;;7.47;63.69;100658.03;5174058;27;45888;-72
2022/04/09 01:30:29;;;;;;;;;4.00;4.00;;;;;7.50;63.16;100655.47;5174403;27;45277;-73
2022/04/09 01:32:55;;;;;;;;;3.00;3.00;;;;;7.46;62.77;100637.63;5168033;27;44923;-73
2022/04/09 01:35:20;;;;;;;;;3.75;3.75;;;;;7.57;62.53;100659.28;5174884;27;44995;-71
2022/04/09 01:37:46;;;;;;;;;0.75;0.75;;;;;7.55;62.97;100658.31;5181544;27;45600;-72
2022/04/09 01:40:11;;;;;;;;;4.25;4.00;;;;;7.52;62.83;100661.78;5174530;27;45167;-72
2022/04/09 01:42:37;;;;;;;;;4.00;4.00;;;;;7.43;62.92;100663.19;5155992;27;45313;-74
2022/04/09 01:45:04;;;;;;;;;3.50;3.25;;;;;7.54;62.89;100696.41;5176953;27;45095;-71
2022/04/09 01:47:29;;;;;;;;;9.00;7.25;;;;;7.49;63.43;100682.00;5177615;27;46762;-72
2022/04/09 01:49:55;;;;;;;;;4.75;3.75;;;;;7.59;63.21;100704.53;5178303;27;45068;-71
2022/04/09 01:52:20;;;;;;;;;3.25;2.00;;;;;7.50;63.33;100713.06;5178620;27;45023;-73
2022/04/09 01:54:45;;;;;;;;;1.25;1.25;;;;;7.39;62.71;100707.31;5178844;27;45238;-71
2022/04/09 01:57:11;;;;;;;;;1.50;1.50;;;;;6.83;63.12;100606.00;5177950;27;46021;-72
2022/04/09 01:59:36;;;;;;;;;3.25;2.25;;;;;7.13;63.09;100661.19;5178472;27;45011;-74
2022/04/09 02:02:02;;;;;;;;;2.50;2.50;;;;;7.21;63.25;100688.94;5178115;27;45186;-73
2022/04/09 02:04:27;;;;;;;;;1.00;1.00;;;;;7.37;63.52;100707.31;5178232;27;45370;-73
2022/04/09 02:06:53;;;;;;;;;3.25;3.25;;;;;7.27;63.69;100673.22;5175453;27;46167;-72
2022/04/09 02:09:19;;;;;;;;;4.25;4.00;;;;;7.10;64.52;100658.41;5177775;27;45102;-72
2022/04/09 02:11:44;;;;;;;;;4.25;4.25;;;;;7.18;65.06;100672.88;5177477;27;45564;-72
2022/04/09 02:14:10;;;;;;;;;4.00;2.50;;;;;7.39;64.90;100709.97;5178730;27;45100;-72
2022/04/09 02:16:36;;;;;;;;;3.00;3.00;;;;;7.30;64.67;100705.22;5177802;27;45568;-72
2022/04/09 02:19:03;;;;;;;;;4.50;4.50;;;;;7.40;64.59;100709.16;5177839;27;44937;-71
2022/04/09 02:21:28;;;;;;;;;3.50;3.00;;;;;7.32;64.52;100678.72;5177155;27;45193;-71
2022/04/09 02:23:54;;;;;;;;;3.25;3.25;;;;;7.29;64.39;100676.88;5156599;27;45277;-71
2022/04/09 02:26:19;;;;;;;;;3.00;3.00;;;;;7.51;64.32;100704.25;5175029;27;45112;-73
2022/04/09 02:28:47;;;;;;;;;5.00;2.75;;;;;7.53;63.78;100708.78;5177339;27;44895;-73
2022/04/09 02:31:13;;;;;;;;;3.75;3.75;;;;;6.98;63.80;100606.59;5177102;27;45168;-73
2022/04/09 02:33:38;;;;;;;;;2.00;1.75;;;;;6.75;63.14;100587.13;5177244;27;45133;-71
2022/04/09 02:36:05;;;;;;;;;3.75;3.75;;;;;7.49;64.77;100713.91;5174114;27;45127;-73
2022/04/09 02:38:31;;;;;;;;;3.75;3.00;;;;;7.33;64.08;100700.03;5174315;27;45239;-74
2022/04/09 02:40:56;;;;;;;;;4.25;3.00;;;;;7.31;64.49;100707.06;5175308;27;45129;-72
2022/04/09 02:43:22;;;;;;;;;4.00;3.75;;;;;7.42;64.28;100726.06;5175410;27;45235;-72
2022/04/09 02:45:47;;;;;;;;;6.25;4.50;;;;;7.33;64.58;100707.13;5155109;27;47875;-74
2022/04/09 02:48:12;;;;;;;;;5.25;3.00;;;;;7.34;64.01;100716.88;5174094;27;44978;-70
2022/04/09 02:50:38;;;;;;;;;3.50;3.00;;;;;7.34;63.94;100724.84;5174308;27;45109;-74
2022/04/09 02:53:03;;;;;;;;;5.00;5.00;;;;;7.42;64.45;100736.69;5176030;27;45185;-72
2022/04/09 02:55:29;;;;;;;;;6.00;4.00;;;;;7.49;64.49;100735.16;5174909;27;45308;-72
2022/04/09 02:57:54;;;;;;;;;4.00;4.00;;;;;7.49;64.21;100732.50;5175687;27;45163;-73
2022/04/09 03:00:19;;;;;;;;;5.00;5.00;;;;;7.47;64.40;100713.84;5175829;27;45172;-73
2022/04/09 03:02:45;;;;;;;;;7.25;4.00;;;;;7.58;63.75;100730.22;5175379;27;45573;-70
2022/04/09 03:05:10;;;;;;;;;4.25;4.00;;;;;7.20;64.11;100666.75;5173365;27;46060;-70
2022/04/09 03:07:36;;;;;;;;;6.00;3.75;;;;;7.55;64.90;100746.03;5176703;27;45061;-74
2022/04/09 03:10:03;;;;;;;;;4.50;4.50;;;;;7.61;65.42;100751.63;5157032;27;45253;-73
2022/04/09 03:12:28;;;;;;;;;11.25;8.50;;;;;7.41;65.46;100736.63;5175418;27;45144;-72
2022/04/09 03:14:53;;;;;;;;;8.00;5.25;;;;;7.49;66.10;100765.34;5174694;27;45392;-72
2022/04/09 03:17:19;;;;;;;;;14.50;10.75;;;;;7.28;66.48;100729.94;5173751;27;44958;-72
2022/04/09 03:19:44;;;;;;;;;4.25;4.00;;;;;7.48;66.77;100770.59;5175664;27;61299;-72
2022/04/09 03:22:09;;;;;;;;;6.75;4.00;;;;;7.46;66.77;100770.53;5172802;27;45182;-72
2022/04/09 03:24:35;;;;;;;;;8.25;6.00;;;;;7.39;66.38;100771.13;5174532;27;45556;-71
2022/04/09 03:27:00;;;;;;;;;3.25;3.25;;;;;7.35;66.45;100778.06;5175604;27;45285;-72
2022/04/09 03:29:25;;;;;;;;;6.50;3.00;;;;;7.04;66.51;100729.88;5174835;27;44971;-71
2022/04/09 03:31:51;;;;;;;;;2.75;2.75;;;;;7.31;65.77;100777.88;5174090;27;45400;-72
2022/04/09 03:34:16;;;;;;;;;5.00;5.00;;;;;7.04;66.56;100744.03;5174648;27;55302;-71
2022/04/09 03:36:42;;;;;;;;;2.75;1.75;;;;;7.27;66.15;100791.91;5153884;27;45435;-70
2022/04/09 03:39:08;;;;;;;;;4.75;2.75;;;;;7.15;65.05;100768.41;5173073;27;45203;-74
2022/04/09 03:41:33;;;;;;;;;2.50;2.25;;;;;7.16;66.18;100781.75;5168473;27;45341;-72
2022/04/09 03:43:58;;;;;;;;;3.75;3.00;;;;;7.26;66.00;100787.41;5172719;27;59206;-72
2022/04/09 03:46:24;;;;;;;;;3.75;3.75;;;;;6.87;65.35;100713.25;5173611;27;45168;-72
2022/04/09 03:48:49;;;;;;;;;2.00;2.00;;;;;7.28;64.84;100793.72;5173250;27;50331;-72
2022/04/09 03:51:14;;;;;;;;;3.50;3.00;;;;;7.32;65.17;100793.00;5173838;27;45437;-72
2022/04/09 03:53:40;;;;;;;;;3.00;3.00;;;;;7.24;65.67;100782.03;5173846;27;49125;-71
2022/04/09 03:56:05;;;;;;;;;1.75;1.75;;;;;7.36;65.66;100797.59;5172870;27;45249;-72
2022/04/09 03:58:31;;;;;;;;;4.50;3.50;;;;;7.25;64.90;100783.88;5173930;27;45089;-73
2022/04/09 04:00:57;;;;;;;;;1.00;1.00;;;;;7.30;64.61;100811.53;5168499;27;45085;-72
2022/04/09 04:03:23;;;;;;;;;2.00;2.00;;;;;7.27;65.18;100819.38;5176012;27;45260;-73
2022/04/09 04:05:48;;;;;;;;;2.00;2.00;;;;;7.08;64.93;100784.91;5176209;27;45431;-71
2022/04/09 04:08:14;;;;;;;;;3.75;3.75;;;;;7.24;64.69;100826.31;5175136;27;44997;-71
2022/04/09 04:10:40;;;;;;;;;2.25;2.25;;;;;7.18;65.05;100811.03;5176636;27;45196;-71
2022/04/09 04:13:06;;;;;;;;;3.00;3.00;;;;;6.97;65.50;100777.44;5177134;27;45745;-72
2022/04/09 04:15:35;;;;;;;;;9.00;5.00;;;;;7.25;65.49;100817.53;5160097;27;45148;-72
2022/04/09 04:18:00;;;;;;;;;2.50;2.50;;;;;7.04;65.36;100783.00;5171665;27;45392;-73
2022/04/09 04:20:26;;;;;;;;;4.75;4.00;;;;;7.28;65.69;100807.00;5175042;27;44966;-71
2022/04/09 04:22:52;;;;;;;;;5.75;3.50;;;;;7.22;65.38;100790.81;5174891;27;45393;-71
2022/04/09 04:25:18;;;;;;;;;4.75;4.50;;;;;7.21;64.92;100789.91;5174747;27;45061;-71
2022/04/09 04:27:46;;;;;;;;;2.50;2.50;;;;;7.28;64.93;100807.00;5175365;27;44948;-71
2022/04/09 04:30:13;;;;;;;;;9.00;8.00;;;;;7.20;65.07;100785.44;5174376;27;44996;-73
2022/04/09 04:32:38;;;;;;;;;4.00;4.00;;;;;7.40;64.74;100807.50;5156074;27;47444;-71
2022/04/09 04:35:04;;;;;;;;;3.00;3.00;;;;;7.42;63.63;100815.53;5175021;27;44911;-73
2022/04/09 04:37:40;;;;;;;;;2.50;2.50;;;;;7.22;64.27;100791.72;5176163;27;45029;-69
2022/04/09 04:40:07;;;;;;;;;6.75;4.00;;;;;7.47;64.43;100814.84;5157052;27;45204;-73
2022/04/09 04:42:32;;;;;;;;;4.25;4.00;;;;;7.05;64.16;100740.56;5174135;27;46418;-71
2022/04/09 04:44:57;;;;;;;;;2.00;2.00;;;;;7.53;63.99;100808.91;5175568;27;45136;-72
2022/04/09 04:47:23;;;;;;;;;4.25;2.25;;;;;7.72;63.42;100821.16;5171199;27;45104;-73
2022/04/09 04:49:48;;;;;;;;;4.50;3.50;;;;;7.79;63.26;100804.59;5174713;27;45170;-70
2022/04/09 04:52:13;;;;;;;;;4.00;2.75;;;;;7.86;62.80;100803.06;5175124;27;46123;-73
2022/04/09 04:54:39;;;;;;;;;2.50;2.25;;;;;7.93;62.18;100810.44;5175385;27;45001;-72
2022/04/09 04:57:04;;;;;;;;;7.75;3.50;;;;;7.81;62.34;100791.38;5174977;27;45078;-73
2022/04/09 04:59:29;;;;;;;;;3.00;1.00;;;;;7.99;62.77;100836.38;5156192;27;45294;-72
2022/04/09 05:01:55;;;;;;;;;2.50;2.50;;;;;7.61;62.54;100770.22;5174274;27;45134;-73
2022/04/09 05:04:20;;;;;;;;;7.25;5.00;;;;;7.81;62.78;100796.69;5174665;27;45064;-71
2022/04/09 05:06:46;;;;;;;;;3.00;3.00;;;;;7.96;62.47;100823.84;5175413;27;45090;-71
2022/04/09 05:09:13;;;;;;;;;2.00;2.00;;;;;7.98;62.21;100831.91;5175486;27;44844;-74
2022/04/09 05:11:39;;;;;;;;;5.00;5.00;;;;;7.83;62.58;100817.16;5174735;27;45904;-72
2022/04/09 05:14:04;;;;;;;;;3.50;3.50;;;;;7.96;62.26;100844.25;5174766;27;45245;-71
2022/04/09 05:16:30;;;;;;;;;4.00;4.00;;;;;7.91;62.89;100839.63;5174566;27;44970;-73
2022/04/09 05:18:55;;;;;;;;;5.50;4.00;;;;;7.98;62.27;100846.09;5175945;27;45211;-73
2022/04/09 05:21:21;;;;;;;;;4.00;4.00;;;;;7.52;62.47;100759.22;5178666;27;45556;-73
2022/04/09 05:23:46;;;;;;;;;3.75;3.75;;;;;7.45;63.00;100774.03;5178556;27;45526;-74
2022/04/09 05:26:11;;;;;;;;;2.50;2.50;;;;;7.66;62.19;100781.94;5176392;27;45203;-72
2022/04/09 05:28:37;;;;;;;;;5.75;4.00;;;;;7.87;61.87;100818.16;5176825;27;45103;-72
2022/04/09 05:31:03;;;;;;;;;7.50;4.00;;;;;7.99;61.59;100834.63;5178598;27;46007;-73
2022/04/09 05:33:28;;;;;;;;;4.00;4.00;;;;;7.86;61.70;100827.91;5177979;27;45161;-73
2022/04/09 05:35:55;;;;;;;;;7.00;7.00;;;;;7.68;62.78;100811.25;5178015;27;45188;-72
2022/04/09 05:38:20;;;;;;;;;4.50;4.50;;;;;7.42;62.77;100767.69;5178289;27;45315;-72
2022/04/09 05:40:46;;;;;;;;;10.50;8.00;;;;;7.85;62.89;100855.38;5178135;27;45663;-71
2022/04/09 05:43:11;;;;;;;;;8.50;5.75;;;;;7.90;62.51;100861.78;5177224;27;45173;-73
2022/04/09 05:45:37;;;;;;;;;9.50;5.00;;;;;7.87;62.42;100855.41;5178968;27;44962;-72
2022/04/09 05:48:03;;;;;;;;;5.50;5.50;;;;;7.80;62.14;100848.94;5176104;27;45303;-73
2022/04/09 05:50:29;;;;;;;;;7.25;5.00;;;;;7.73;62.92;100845.13;5176848;27;46552;-73
2022/04/09 05:52:54;;;;;;;;;5.75;4.25;;;;;7.85;62.74;100871.34;5177172;27;45243;-73
2022/04/09 05:55:20;;;;;;;;;6.25;4.75;;;;;7.74;62.68;100835.44;5172534;27;44972;-70
2022/04/09 05:57:45;;;;;;;;;8.00;5.50;;;;;7.62;63.16;100806.59;5178253;27;45129;-72
2022/04/09 06:00:11;;;;;;;;;8.00;8.00;;;;;8.10;63.06;100872.25;5177234;27;44990;-72
2022/04/09 06:02:39;;;;;;;;;6.75;6.75;;;;;8.15;62.30;100873.38;5175078;27;45260;-72
2022/04/09 06:05:06;;;;;;;;;8.00;5.75;;;;;8.08;62.41;100868.66;5179362;27;45065;-74
2022/04/09 06:07:31;;;;;;;;;11.25;9.50;;;;;8.21;62.44;100872.69;5176609;27;45201;-72
2022/04/09 06:09:57;;;;;;;;;8.75;5.00;;;;;8.14;62.75;100863.56;5176790;27;45946;-74
2022/04/09 06:12:23;;;;;;;;;10.00;8.00;;;;;7.99;61.83;100833.72;5177586;27;45051;-77
2022/04/09 06:14:48;;;;;;;;;9.50;7.25;;;;;8.20;62.19;100874.44;5177817;27;44991;-75
2022/04/09 06:17:14;;;;;;;;;13.25;7.50;;;;;8.26;62.89;100879.09;5177400;27;45171;-71
2022/04/09 06:19:39;;;;;;;;;7.00;5.50;;;;;8.35;63.00;100881.19;5176300;27;46696;-72
2022/04/09 06:22:04;;;;;;;;;5.50;5.50;;;;;8.10;61.84;100846.59;5169882;27;45450;-72
2022/04/09 06:24:30;;;;;;;;;4.75;4.25;;;;;8.28;61.45;100870.31;5168665;27;45343;-71
2022/04/09 06:26:55;;;;;;;;;10.00;8.25;;;;;8.43;62.55;100907.28;5165357;27;45389;-76
2022/04/09 06:29:20;;;;;;;;;6.75;6.50;;;;;8.44;63.37;100909.09;5161377;27;47546;-73
2022/04/09 06:31:47;;;;;;;;;8.75;6.25;;;;;8.10;62.27;100843.00;5161554;27;45128;-74
2022/04/09 06:34:14;;;;;;;;;8.75;8.75;;;;;8.20;62.77;100874.44;5160746;27;45446;-74
2022/04/09 06:36:39;;;;;;;;;10.00;6.25;;;;;8.27;62.37;100881.81;5160293;27;45418;-72
2022/04/09 06:39:05;;;;;;;;;15.25;14.75;;;;;8.45;62.54;100918.00;5157292;27;46195;-75
2022/04/09 06:41:30;;;;;;;;;9.75;7.50;;;;;8.42;62.37;100923.19;5173809;27;45103;-76
2022/04/09 06:43:56;;;;;;;;;7.00;7.00;;;;;8.37;63.12;100925.66;5176197;27;45101;-73
2022/04/09 06:46:21;;;;;;;;;9.25;6.50;;;;;8.42;62.74;100929.41;5173288;27;45273;-74
2022/04/09 06:48:47;;;;;;;;;7.00;5.75;;;;;8.01;63.37;100867.50;5164869;27;59400;-75
2022/04/09 06:51:12;;;;;;;;;9.25;7.25;;;;;8.49;63.84;100930.56;5169382;27;50106;-76
2022/04/09 06:53:38;;;;;;;;;8.75;5.50;;;;;8.09;62.93;100863.38;5177609;27;45102;-76
2022/04/09 06:56:07;;;;;;;;;9.50;5.00;;;;;8.50;62.52;100943.03;5177712;27;45032;-76
2022/04/09 06:58:33;;;;;;;;;7.75;7.00;;;;;8.23;63.26;100906.50;5177416;27;45356;-75
2022/04/09 07:00:59;;;;;;;;;5.00;5.00;;;;;8.41;63.71;100947.97;5177308;27;45166;-74
2022/04/09 07:03:26;;;;;;;;;6.00;5.75;;;;;8.43;63.31;100952.56;5176490;27;45019;-74
2022/04/09 07:05:51;;;;;;;;;7.00;4.25;;;;;8.32;63.48;100931.66;5176349;27;45196;-76
2022/04/09 07:08:16;;;;;;;;;8.00;5.50;;;;;8.41;64.31;100939.97;5176904;27;50176;-73
2022/04/09 07:10:41;;;;;;;;;6.00;6.00;;;;;8.44;63.41;100959.69;5176291;27;59524;-71
2022/04/09 07:13:07;;;;;;;;;5.75;5.75;;;;;8.33;62.92;100957.41;5173129;27;45189;-74
2022/04/09 07:15:34;;;;;;;;;12.25;7.00;;;;;8.24;64.14;100950.88;5171192;27;45659;-75
2022/04/09 07:17:59;;;;;;;;;12.50;10.75;;;;;8.28;65.02;100938.59;5174831;27;45082;-73
2022/04/09 07:20:25;;;;;;;;;11.75;8.00;;;;;8.28;63.66;100938.59;5174893;27;45432;-72
2022/04/09 07:22:50;;;;;;;;;8.00;5.50;;;;;8.02;63.96;100897.66;5173956;27;44976;-73
2022/04/09 07:25:18;;;;;;;;;8.00;7.00;;;;;8.56;63.86;100972.53;5174612;27;45102;-73
2022/04/09 07:27:45;;;;;;;;;8.75;6.25;;;;;8.47;64.49;100949.16;5172726;27;45659;-73
2022/04/09 07:30:16;;;;;;;;;9.25;7.50;;;;;8.41;64.33;100934.66;5173646;27;45193;-74
2022/04/09 07:32:41;;;;;;;;;6.25;6.25;;;;;8.59;63.90;100974.44;5175379;27;44834;-73
2022/04/09 07:35:08;;;;;;;;;10.75;7.25;;;;;8.60;62.81;100978.91;5176057;27;45115;-77
2022/04/09 07:37:40;;;;;;;;;8.00;6.25;;;;;8.41;62.77;100942.66;5156534;27;46674;-77
2022/04/09 07:40:06;;;;;;;;;10.50;8.25;;;;;8.67;62.61;100971.19;5175413;27;45366;-77
2022/04/09 07:42:33;;;;;;;;;6.00;6.00;;;;;8.81;62.43;100979.72;5174725;27;45201;-72
2022/04/09 07:44:58;;;;;;;;;8.75;6.75;;;;;8.89;62.28;100987.09;5176222;27;45190;-74
2022/04/09 07:47:24;;;;;;;;;9.25;6.75;;;;;8.67;61.40;100941.00;5174976;27;45695;-74
2022/04/09 07:49:49;;;;;;;;;16.00;12.00;;;;;8.95;62.18;100968.66;5174420;27;45157;-76
2022/04/09 07:52:15;;;;;;;;;9.25;8.50;;;;;9.08;61.42;100986.00;5154227;27;45372;-78
2022/04/09 07:54:40;;;;;;;;;9.75;8.75;;;;;9.13;61.03;100995.97;5175234;27;44963;-74
2022/04/09 07:57:05;;;;;;;;;7.50;7.50;;;;;8.91;61.23;100953.41;5173711;27;57998;-76
2022/04/09 07:59:31;;;;;;;;;13.00;13.00;;;;;9.10;61.95;100987.88;5174686;27;45131;-77
2022/04/09 08:01:56;;;;;;;;;7.50;6.00;;;;;9.22;61.18;100996.31;5172106;27;45169;-71
2022/04/09 08:04:22;;;;;;;;;15.75;14.75;;;;;9.25;60.78;101000.84;5175843;27;45166;-77
2022/04/09 08:06:47;;;;;;;;;7.00;7.00;;;;;9.17;60.63;100981.00;5173985;27;45313;-76
2022/04/09 08:09:12;;;;;;;;;8.25;8.00;;;;;9.20;60.46;100998.00;5174590;27;45123;-73
2022/04/09 08:11:37;;;;;;;;;6.50;6.50;;;;;9.33;60.65;101010.00;5174688;27;55921;-73
2022/04/09 08:14:03;;;;;;;;;11.75;10.00;;;;;9.26;59.50;100985.78;5175229;27;44937;-76
2022/04/09 08:16:29;;;;;;;;;28.25;21.50;;;;;9.45;59.99;100996.19;5174731;27;45156;-71
2022/04/09 08:18:54;;;;;;;;;10.50;7.00;;;;;9.41;58.88;100972.97;5175088;27;45191;-77
2022/04/09 08:21:21;;;;;;;;;10.75;10.25;;;;;9.31;58.79;100960.19;5175392;27;45176;-74
2022/04/09 08:23:47;;;;;;;;;11.50;10.25;;;;;9.27;59.48;100937.81;5155620;27;45339;-70
2022/04/09 08:26:13;;;;;;;;;10.75;10.00;;;;;9.18;58.76;100909.06;5155915;27;46063;-70
2022/04/09 08:28:38;;;;;;;;;15.25;11.00;;;;;9.52;57.94;100959.97;5172951;27;45317;-73
2022/04/09 08:31:04;;;;;;;;;14.25;13.00;;;;;9.77;57.67;100999.97;5172039;27;45501;-74
2022/04/09 08:33:29;;;;;;;;;11.00;7.75;;;;;9.71;57.43;101004.22;5172731;27;45111;-72
2022/04/09 08:35:55;;;;;;;;;10.75;9.75;;;;;9.51;57.94;100966.19;5170823;27;45444;-72
2022/04/09 08:38:21;;;;;;;;;9.75;9.50;;;;;9.74;57.69;101005.22;5173000;27;45281;-73
2022/04/09 08:40:47;;;;;;;;;12.50;11.50;;;;;9.78;57.60;101004.47;5173759;27;45353;-72
2022/04/09 08:43:13;;;;;;;;;8.25;8.00;;;;;9.95;56.83;101031.72;5172245;27;47533;-71
2022/04/09 08:45:40;;;;;;;;;8.25;7.00;;;;;9.89;56.63;101017.25;5172208;27;45267;-71
2022/04/09 08:48:07;;;;;;;;;10.00;10.00;;;;;10.04;55.68;101044.44;5167912;27;45079;-72
2022/04/09 08:50:35;;;;;;;;;12.25;11.00;;;;;9.94;56.16;101029.00;5171456;27;45253;-73
2022/04/09 08:53:06;;;;;;;;;11.75;9.75;;;;;10.19;55.75;101057.41;5145855;27;45277;-72
2022/04/09 08:55:33;;;;;;;;;8.00;6.50;;;;;9.69;55.13;100971.25;5178081;27;46155;-72
2022/04/09 08:57:58;;;;;;;;;10.25;7.50;;;;;9.81;55.28;101010.75;5175006;27;45478;-72
2022/04/09 09:00:23;;;;;;;;;19.00;14.75;;;;;10.08;56.02;101064.16;5166445;27;45675;-71
2022/04/09 09:02:57;;;;;;;;;10.50;10.25;;;;;9.83;55.79;101009.03;5179280;27;45095;-73
2022/04/09 09:05:38;;;;;;;;;7.25;7.00;;;;;9.88;54.66;101024.38;5178660;27;45101;-69
2022/04/09 09:08:05;;;;;;;;;7.50;7.50;;;;;10.12;56.03;101052.72;5172324;27;45163;-73
2022/04/09 09:10:31;;;;;;;;;10.00;8.50;;;;;10.36;55.77;101067.75;5175623;27;45556;-73
2022/04/09 09:13:06;;;;;;;;;8.75;5.50;;;;;10.27;53.87;101076.34;5176617;27;45125;-73
2022/04/09 09:15:52;;;;;;;;;15.00;11.25;;;;;10.25;55.26;101072.75;5174363;27;46327;-73
2022/04/09 09:18:26;;;;;;;;;13.50;6.00;;;;;10.03;55.10;101048.00;5178419;27;45210;-73
2022/04/09 09:20:59;;;;;;;;;8.75;8.25;;;;;10.24;55.03;101058.47;5177119;27;45379;-72
2022/04/09 09:23:27;;;;;;;;;9.50;7.25;;;;;9.87;54.02;100986.97;5176566;27;45074;-72
2022/04/09 09:25:55;;;;;;;;;8.25;7.75;;;;;9.51;53.88;100936.84;5175114;27;45337;-71
2022/04/09 09:28:31;;;;;;;;;7.25;7.00;;;;;10.28;53.33;101087.09;5175317;27;45599;-71
2022/04/09 09:30:58;;;;;;;;;9.25;7.50;;;;;10.20;54.05;101064.56;5169587;27;45294;-72
2022/04/09 09:33:25;;;;;;;;;13.00;12.00;;;;;10.45;53.66;101095.69;5174159;27;45190;-73
2022/04/09 09:36:01;;;;;;;;;10.50;8.00;;;;;10.41;53.24;101099.13;5156187;27;47488;-73
2022/04/09 09:38:32;;;;;;;;;10.00;6.50;;;;;10.04;53.43;101071.16;5175093;27;44925;-72
2022/04/09 09:40:58;;;;;;;;;11.00;8.00;;;;;10.17;54.38;101096.50;5174950;27;45024;-72
2022/04/09 09:43:25;;;;;;;;;10.25;6.75;;;;;10.12;54.11;101098.13;5175949;27;45626;-73
2022/04/09 09:45:53;;;;;;;;;7.25;7.25;;;;;9.99;53.65;101056.75;5176522;27;45137;-72
2022/04/09 09:48:21;;;;;;;;;8.00;7.00;;;;;10.33;54.09;101116.66;5176383;27;44920;-73
2022/04/09 09:50:47;;;;;;;;;25.25;17.25;;;;;9.48;54.10;100948.31;5170134;27;45590;-72
2022/04/09 09:53:14;;;;;;;;;7.50;6.75;;;;;9.77;53.52;101008.00;5176987;27;44963;-75
2022/04/09 09:55:44;;;;;;;;;15.00;14.00;;;;;10.28;53.73;101104.88;5173026;27;45450;-72
2022/04/09 09:58:16;;;;;;;;;6.25;6.25;;;;;10.61;53.92;101131.81;5174983;27;45058;-72
2022/04/09 10:00:45;;;;;;;;;5.00;5.00;;;;;10.57;52.99;101143.25;5176102;27;45231;-72
2022/04/09 10:03:13;;;;;;;;;7.25;7.00;;;;;10.38;52.95;101115.03;5156121;27;45034;-72
2022/04/09 10:05:41;;;;;;;;;9.00;8.50;;;;;10.42;53.19;101084.88;5172574;27;46168;-72
2022/04/09 10:08:07;;;;;;;;;7.25;6.75;;;;;10.50;52.54;101096.72;5176339;27;45070;-72
2022/04/09 10:10:37;;;;;;;;;10.25;6.25;;;;;10.88;52.30;101149.59;5174796;27;45320;-72
2022/04/09 10:13:04;;;;;;;;;10.25;10.00;;;;;10.06;52.57;101000.03;5176683;27;45095;-72
2022/04/09 10:15:31;;;;;;;;;7.25;7.25;;;;;10.78;51.78;101158.19;5176930;27;45509;-70
2022/04/09 10:17:57;;;;;;;;;10.75;10.75;;;;;10.20;52.53;101117.06;5175440;27;45163;-73
2022/04/09 10:20:28;;;;;;;;;11.00;8.25;;;;;9.35;53.46;100992.31;5175960;27;45094;-73
2022/04/09 10:22:58;;;;;;;;;16.00;9.00;;;;;10.08;53.51;101141.56;5170427;27;45451;-71
2022/04/09 10:25:32;;;;;;;;;14.00;10.00;;;;;9.98;54.30;101167.03;5175505;27;45183;-71
2022/04/09 10:28:02;;;;;;;;;6.75;5.75;;;;;9.98;54.50;101177.69;5156632;27;44967;-73
2022/04/09 10:30:28;;;;;;;;;8.50;7.00;;;;;9.92;55.35;101172.16;5175621;27;45441;-71
2022/04/09 10:32:59;;;;;;;;;10.50;8.75;;;;;10.04;54.86;101179.69;5176029;27;45053;-72
2022/04/09 10:35:39;;;;;;;;;12.25;10.50;;;;;9.87;54.31;101155.09;5156192;27;47474;-71
2022/04/09 10:38:10;;;;;;;;;8.50;8.25;;;;;10.02;54.50;101192.09;5176937;27;45035;-72
2022/04/09 10:40:45;;;;;;;;;8.75;8.00;;;;;10.07;55.21;101183.38;5155995;27;45068;-71
2022/04/09 10:43:37;;;;;;;;;13.75;13.75;;;;;10.16;54.16;101190.78;5175641;27;45043;-72
2022/04/09 10:46:02;;;;;;;;;12.75;11.50;;;;;10.06;53.75;101194.91;5154521;27;46288;-73
2022/04/09 10:48:38;;;;;;;;;6.25;6.25;;;;;10.06;54.12;101200.25;5175462;27;45316;-72
2022/04/09 10:51:11;;;;;;;;;11.25;10.75;;;;;10.10;54.16;101199.50;5158207;27;45097;-73
2022/04/09 10:53:46;;;;;;;;;9.25;7.75;;;;;9.78;53.64;101127.22;5174169;27;45241;-72
2022/04/09 10:56:24;;;;;;;;;15.25;11.50;;;;;10.27;53.75;101205.44;5175582;27;45643;-70
2022/04/09 10:59:08;;;;;;;;;13.75;10.50;;;;;10.25;52.20;101201.81;5176022;27;45262;-71
2022/04/09 11:01:46;;;;;;;;;10.25;9.25;;;;;10.33;53.40;101207.47;5176829;27;45112;-71
2022/04/09 11:04:27;;;;;;;;;27.50;23.50;;;;;10.42;52.97;101207.75;5175980;27;45135;-72
2022/04/09 11:07:18;;;;;;;;;13.50;12.75;;;;;10.51;53.12;101213.44;5156203;27;47579;-72
2022/04/09 11:09:58;;;;;;;;;13.50;12.25;;;;;10.15;53.28;101133.81;5166289;27;45296;-73
2022/04/09 11:12:31;;;;;;;;;16.75;16.25;;;;;10.68;51.50;101218.44;5174884;27;45359;-71
2022/04/09 11:14:58;;;;;;;;;15.00;12.75;;;;;10.46;51.19;101180.31;5178463;27;44970;-72
2022/04/09 11:17:33;;;;;;;;;21.75;18.25;;;;;10.37;50.92;101139.03;5176577;27;45101;-73
2022/04/09 11:20:16;;;;;;;;;14.00;11.25;;;;;10.83;50.67;101205.56;5176894;27;44877;-71
2022/04/09 11:22:44;;;;;;;;;11.25;9.50;;;;;10.75;50.08;101206.19;5163279;27;45768;-73
2022/04/09 11:25:17;;;;;;;;;12.25;8.50;;;;;10.09;50.43;101109.59;5170618;27;45163;-72
2022/04/09 11:27:42;;;;;;;;;14.00;11.00;;;;;10.87;51.05;101209.25;5170126;27;45920;-72